Hartland, Michigan
Current Conditions -  °F | °C
As of 7:55 AM on Saturday 20 Dec 2014 (Local Time) from KOZW Reporting Station
Overcast Overcast  
Wind Chill: -5°   Ceiling: 2300
Heat Index: -5°   Visibility: 10mi
Dew Point: -6°   Wind: 0mph
Humidity: 94%   Direction: NA
Pressure: 30.27"   Gusts: NA
Location:  42.66°N, 83.75°W
Report Text: KOZW 201255Z AUTO 00000KT 10SM OVC023 M05/M06 A3027 RMK AO2 T10491058
Loading
Personal Weather Stations






























Interactive Weather Map New forecast layout! Learn more

10-Day Weather Forecast

Advertisements
Track Severe Weather on mobile